METAR AND TAF INFORMATION
METAR FOR LOWK
ADDS - METARS form results

(1916 UTC 26 April 2018)
Data provider http://aviationweather.gov/adds/metars/
 
METAR text: LOWK 261850Z VRB02KT 9999 RA FEW012 OVC050 09/07 Q1019 BECMG NSW
Conditions at: LOWK (KLAGENFURT(CIV/M, AT) observed 1850 UTC 26 April 2018
Temperature: 9.0°C (48°F)
Dewpoint: 7.0°C (45°F) [RH = 87%]
Pressure (altimeter): 30.09 inches Hg (1019.0 mb)
Winds: variable direction winds at 2 MPH (2 knots; 1.0 m/s)
Visibility: 6 or more miles (10+ km)
Ceiling: 5000 feet AGL
Clouds: few clouds at 1200 feet AGL
overcast cloud deck at 5000 feet AGL
Weather: RA  (rain)

METAR text: LOWK 261820Z VRB02KT 9999 SHRA FEW012 OVC050 09/07 Q1019 BECMG NSW
Conditions at: LOWK (KLAGENFURT(CIV/M, AT) observed 1820 UTC 26 April 2018
Temperature: 9.0°C (48°F)
Dewpoint: 7.0°C (45°F) [RH = 87%]
Pressure (altimeter): 30.09 inches Hg (1019.0 mb)
Winds: variable direction winds at 2 MPH (2 knots; 1.0 m/s)
Visibility: 6 or more miles (10+ km)
Ceiling: 5000 feet AGL
Clouds: few clouds at 1200 feet AGL
overcast cloud deck at 5000 feet AGL
Weather: SHRA  (rain showers)

Forecast for: LOWK (KLAGENFURT(CIV/M, AT)
Text: TAF AMD LOWK 261818Z 2618/2718 VRB02KT 9999 FEW040 BKN060 TX18/2716Z TN09/2704Z
Forecast period: 1800 UTC 26 April 2018 to 1800 UTC 27 April 2018
Forecast type: FROM: standard forecast or significant change
Winds: variable direction winds at 2 MPH (2 knots; 1.0 m/s)
Visibility: 6 or more miles (10+ km)
Ceiling: 6000 feet AGL
Clouds: few clouds at 4000 feet AGL
broken clouds at 6000 feet AGL
Weather: no significant weather forecast for this period
Forecast for: LOWK (KLAGENFURT(CIV/M, AT)
Text: TAF AMD LOWK 261818Z 2618/2718 VRB02KT 9999 FEW040 BKN060 TX18/2716Z TN09/2704Z
Forecast period: 1800 UTC 26 April 2018 to 1800 UTC 27 April 2018
Forecast type: FROM: standard forecast or significant change
Winds: variable direction winds at 2 MPH (2 knots; 1.0 m/s)
Visibility: 6 or more miles (10+ km)
Ceiling: 6000 feet AGL
Clouds: few clouds at 4000 feet AGL
broken clouds at 6000 feet AGL
Weather: no significant weather forecast for this period
Forecast for: LOWK (KLAGENFURT(CIV/M, AT)
Text: TAF AMD LOWK 261818Z 2618/2718 VRB02KT 9999 FEW040 BKN060 TX18/2716Z TN09/2704Z
Forecast period: 1800 to 2000 UTC 26 April 2018
Forecast type: TEMPORARY: The following changes expected for less than half the time period
Ceiling: 4500 feet AGL
Clouds: broken clouds at 4500 feet AGL
Weather: RA  (rain)
Forecast for: LOWK (KLAGENFURT(CIV/M, AT)
Text: TAF AMD LOWK 261818Z 2618/2718 VRB02KT 9999 FEW040 BKN060 TX18/2716Z TN09/2704Z
Forecast period: 1800 to 2000 UTC 26 April 2018
Forecast type: TEMPORARY: The following changes expected for less than half the time period
Ceiling: 4500 feet AGL
Clouds: broken clouds at 4500 feet AGL
Weather: RA  (rain)
Forecast for: LOWK (KLAGENFURT(CIV/M, AT)
Text: TAF AMD LOWK 261818Z 2618/2718 VRB02KT 9999 FEW040 BKN060 TX18/2716Z TN09/2704Z
Forecast period: 0200 to 0500 UTC 27 April 2018
Forecast type: TEMPORARY: The following changes expected for less than half the time period
Visibility: 2.49 miles (4.01 km)
Clouds: few clouds at 300 feet AGL
scattered clouds at 500 feet AGL
Weather: MIFG  (shallow fog)
Forecast for: LOWK (KLAGENFURT(CIV/M, AT)
Text: TAF AMD LOWK 261818Z 2618/2718 VRB02KT 9999 FEW040 BKN060 TX18/2716Z TN09/2704Z
Forecast period: 0200 to 0500 UTC 27 April 2018
Forecast type: TEMPORARY: The following changes expected for less than half the time period
Visibility: 2.49 miles (4.01 km)
Clouds: few clouds at 300 feet AGL
scattered clouds at 500 feet AGL
Weather: MIFG  (shallow fog)

 AIRPORT MAP

 RUNWAY INFORMATION
Runway 10L Runway length 8924 ft Runway width 148 ft
Runway elevation 1470 ft Runway displaced threshold 656 ft Runway heading 106
Runway 28R Runway length 8924 ft Runway width 148 ft
Runway elevation 1445 ft Runway displaced threshold 0 ft Runway heading 286
Runway 10R Runway length 2427 ft Runway width 90 ft
Runway elevation 1470 ft Runway displaced threshold 196 ft Runway heading 106
Runway 28L Runway length 2427 ft Runway width 90 ft
Runway elevation 1463 ft Runway displaced threshold 196 ft Runway heading 286

 AIRPORT FREQUENCIES
Type APP Name APP Frequency 126.825 MHZ
Type ATIS Name ATIS Frequency 124.075 MHZ
Type TWR Name TWR Frequency 118.1 MHZ

 AIRPORT NEAR NAVIGATION AIDS
Type VOR-DME Name Klagenfurt Frequency 113100 KHZ
Type NDB Name Klagenfurt Frequency 374 KHZ
Type NDB Name Klagenfurt Frequency 405 KHZ
Type VOR-DME Name Villach Frequency 112900 KHZ



v2.6.1